createdAt,value
2018-10-17T00:00:37.813Z,25.88
2018-10-17T00:03:05.936Z,21.35
2018-10-17T00:05:34.011Z,25.25
2018-10-17T00:08:02.109Z,30.52
2018-10-17T00:10:30.180Z,24.77
2018-10-17T00:12:58.275Z,22.82
2018-10-17T00:15:26.395Z,25.32
2018-10-17T00:17:54.486Z,19.55
2018-10-17T00:20:22.566Z,20.70
2018-10-17T00:22:50.684Z,21.75
2018-10-17T00:25:18.730Z,19.90
2018-10-17T00:27:46.800Z,23.00
2018-10-17T00:30:14.914Z,19.62
2018-10-17T00:32:42.992Z,20.97
2018-10-17T00:35:11.195Z,19.25
2018-10-17T00:37:39.241Z,20.88
2018-10-17T00:40:07.592Z,22.87
2018-10-17T00:42:35.763Z,23.67
2018-10-17T00:45:03.852Z,23.38
2018-10-17T00:47:31.941Z,20.27
2018-10-17T00:50:00.081Z,21.52
2018-10-17T00:52:28.769Z,21.85
2018-10-17T00:54:56.849Z,27.13
2018-10-17T00:57:24.920Z,24.57
2018-10-17T00:59:53.029Z,25.00
2018-10-17T01:02:21.109Z,20.88
2018-10-17T01:04:49.360Z,19.90
2018-10-17T01:07:17.660Z,18.73
2018-10-17T01:09:45.744Z,21.27
2018-10-17T01:12:13.857Z,21.65
2018-10-17T01:14:41.959Z,23.92
2018-10-17T01:17:10.110Z,24.18
2018-10-17T01:19:38.173Z,21.90
2018-10-17T01:22:06.241Z,24.77
2018-10-17T01:24:34.319Z,23.22
2018-10-17T01:27:02.393Z,21.05
2018-10-17T01:29:30.467Z,21.93
2018-10-17T01:31:58.541Z,24.07
2018-10-17T01:34:26.622Z,22.00
2018-10-17T01:36:54.703Z,19.20
2018-10-17T01:39:22.800Z,24.02
2018-10-17T01:41:50.873Z,24.98
2018-10-17T01:44:18.944Z,22.65
2018-10-17T01:46:47.020Z,26.02
2018-10-17T01:49:15.138Z,23.25
2018-10-17T01:51:43.184Z,20.45
2018-10-17T01:54:11.255Z,22.90
2018-10-17T01:56:39.362Z,21.68
2018-10-17T01:59:07.535Z,26.55
2018-10-17T02:01:35.589Z,28.80
2018-10-17T02:04:03.657Z,26.45
2018-10-17T02:06:31.725Z,18.95
2018-10-17T02:08:59.795Z,28.70
2018-10-17T02:11:27.873Z,22.30
2018-10-17T02:13:55.960Z,19.92
2018-10-17T02:16:24.040Z,23.67
2018-10-17T02:18:52.134Z,21.50
2018-10-17T02:21:20.222Z,21.40
2018-10-17T02:23:48.282Z,21.80
2018-10-17T02:26:16.364Z,23.40
2018-10-17T02:28:44.429Z,21.35
2018-10-17T02:31:12.562Z,19.45
2018-10-17T02:33:40.581Z,22.05
2018-10-17T02:36:08.652Z,22.50
2018-10-17T02:38:36.729Z,18.50
2018-10-17T02:41:04.918Z,16.85
2018-10-17T02:43:33.067Z,22.65
2018-10-17T02:46:01.161Z,18.85
2018-10-17T02:48:29.257Z,26.10
2018-10-17T02:50:57.372Z,24.02
2018-10-17T02:53:25.453Z,24.02
2018-10-17T02:55:53.545Z,28.90
2018-10-17T02:58:21.629Z,19.00
2018-10-17T03:00:49.701Z,22.87
2018-10-17T03:03:17.778Z,22.40
2018-10-17T03:05:45.861Z,19.82
2018-10-17T03:08:13.941Z,22.15
2018-10-17T03:10:42.030Z,18.05
2018-10-17T03:13:10.192Z,24.30
2018-10-17T03:15:38.190Z,21.55
2018-10-17T03:18:06.268Z,24.37
2018-10-17T03:20:34.372Z,19.05
2018-10-17T03:23:02.461Z,19.92
2018-10-17T03:25:30.553Z,23.47
2018-10-17T03:27:58.712Z,25.17
2018-10-17T03:30:26.734Z,22.87
2018-10-17T03:32:54.808Z,23.20
2018-10-17T03:35:22.900Z,17.75
2018-10-17T03:37:51.002Z,17.55
2018-10-17T03:40:19.098Z,23.55
2018-10-17T03:42:47.190Z,18.65
2018-10-17T03:45:15.284Z,18.75
2018-10-17T03:47:43.410Z,21.50
2018-10-17T03:50:11.490Z,14.30
2018-10-17T03:52:39.581Z,18.82
2018-10-17T03:55:07.748Z,18.45
2018-10-17T03:57:35.768Z,16.20
2018-10-17T04:00:03.858Z,20.10
2018-10-17T04:02:31.954Z,17.55
2018-10-17T04:05:00.050Z,21.80
2018-10-17T04:07:35.118Z,23.95
2018-10-17T04:10:03.201Z,18.60
2018-10-17T04:12:31.277Z,17.10
2018-10-17T04:14:59.362Z,19.07
2018-10-17T04:17:27.449Z,21.45
2018-10-17T04:19:55.543Z,24.37
2018-10-17T04:22:23.678Z,19.65
2018-10-17T04:24:51.765Z,21.75
2018-10-17T04:27:19.853Z,20.35
2018-10-17T04:29:47.955Z,21.95
2018-10-17T04:32:16.045Z,18.00
2018-10-17T04:34:44.120Z,18.25
2018-10-17T04:37:12.291Z,20.30
2018-10-17T04:39:40.326Z,21.60
2018-10-17T04:42:08.413Z,22.87
2018-10-17T04:44:36.494Z,17.10
2018-10-17T04:47:04.677Z,13.28
2018-10-17T04:49:32.709Z,18.92
2018-10-17T04:52:00.798Z,25.57
2018-10-17T04:54:28.974Z,25.52
2018-10-17T04:56:57.061Z,22.82
2018-10-17T04:59:25.141Z,24.87
2018-10-17T05:01:53.247Z,23.87
2018-10-17T05:04:21.340Z,27.02
2018-10-17T05:06:49.434Z,17.37
2018-10-17T05:09:17.507Z,25.32
2018-10-17T05:11:45.590Z,21.57
2018-10-17T05:14:13.673Z,22.70
2018-10-17T05:16:41.780Z,24.60
2018-10-17T05:19:09.956Z,17.67
2018-10-17T05:21:37.990Z,20.95
2018-10-17T05:24:06.066Z,22.90
2018-10-17T05:26:34.153Z,22.25
2018-10-17T05:29:02.279Z,17.70
2018-10-17T05:31:30.339Z,17.17
2018-10-17T05:33:58.441Z,21.17
2018-10-17T05:36:26.555Z,24.52
2018-10-17T05:38:54.691Z,16.40
2018-10-17T05:41:22.754Z,20.17
2018-10-17T05:43:50.845Z,19.57
2018-10-17T05:46:18.933Z,17.77
2018-10-17T05:48:47.054Z,20.45
2018-10-17T05:51:15.178Z,23.87
2018-10-17T05:53:43.290Z,29.48
2018-10-17T05:56:11.386Z,18.37
2018-10-17T05:58:39.498Z,17.50
2018-10-17T06:01:07.627Z,21.37
2018-10-17T06:03:35.710Z,17.25
2018-10-17T06:06:03.801Z,22.77
2018-10-17T06:08:31.897Z,23.25
2018-10-17T06:11:00.013Z,16.93
2018-10-17T06:13:28.070Z,19.67
2018-10-17T06:15:56.171Z,16.45
2018-10-17T06:18:24.274Z,18.35
2018-10-17T06:20:52.361Z,18.70
2018-10-17T06:23:20.437Z,16.95
2018-10-17T06:25:48.525Z,17.87
2018-10-17T06:28:16.664Z,21.48
2018-10-17T06:30:44.800Z,23.35
2018-10-17T06:33:12.813Z,18.35
2018-10-17T06:35:40.908Z,16.67
2018-10-17T06:38:09.023Z,25.60
2018-10-17T06:40:37.126Z,21.45
2018-10-17T06:43:05.318Z,19.90
2018-10-17T06:45:33.375Z,26.02
2018-10-17T06:48:01.454Z,17.15
2018-10-17T06:50:29.558Z,27.87
2018-10-17T06:52:57.697Z,24.92
2018-10-17T06:55:25.766Z,24.18
2018-10-17T06:57:53.862Z,23.85
2018-10-17T07:00:21.981Z,23.00
2018-10-17T07:02:50.057Z,25.32
2018-10-17T07:05:18.219Z,34.78
2018-10-17T07:07:46.233Z,23.85
2018-10-17T07:10:14.339Z,30.65
2018-10-17T07:12:42.420Z,19.10
2018-10-17T07:15:10.564Z,28.27
2018-10-17T07:17:38.610Z,25.43
2018-10-17T07:20:07.378Z,33.60
2018-10-17T07:22:35.469Z,32.25
2018-10-17T07:25:03.632Z,34.00
2018-10-17T07:27:31.706Z,29.60
2018-10-17T07:29:59.802Z,26.07
2018-10-17T07:32:27.992Z,24.02
2018-10-17T07:34:56.097Z,25.60
2018-10-17T07:37:24.209Z,29.12
2018-10-17T07:39:52.364Z,37.88
2018-10-17T07:42:20.562Z,34.15
2018-10-17T07:44:48.558Z,40.85
2018-10-17T07:47:16.645Z,32.50
2018-10-17T07:49:44.757Z,24.65
2018-10-17T07:52:12.854Z,35.13
2018-10-17T07:54:40.933Z,33.33
2018-10-17T07:57:09.017Z,32.85
2018-10-17T07:59:37.121Z,31.17
2018-10-17T08:02:05.209Z,32.70
2018-10-17T08:04:33.293Z,37.53
2018-10-17T08:07:01.404Z,27.37
2018-10-17T08:09:29.476Z,34.60
2018-10-17T08:11:57.590Z,31.40
2018-10-17T08:14:25.970Z,33.18
2018-10-17T08:16:54.066Z,35.88
2018-10-17T08:19:22.162Z,33.73
2018-10-17T08:21:50.261Z,27.67
2018-10-17T08:24:18.410Z,33.48
2018-10-17T08:26:46.457Z,30.60
2018-10-17T08:29:15.126Z,37.85
2018-10-17T08:31:43.217Z,31.70
2018-10-17T08:34:11.302Z,33.28
2018-10-17T08:36:39.671Z,35.48
2018-10-17T08:39:08.261Z,44.03
2018-10-17T08:41:36.417Z,33.63
2018-10-17T08:44:04.618Z,34.08
2018-10-17T08:46:32.654Z,39.18
2018-10-17T08:49:00.754Z,38.63
2018-10-17T08:51:28.829Z,42.03
2018-10-17T08:53:56.966Z,38.17
2018-10-17T08:56:25.371Z,34.83
2018-10-17T08:58:53.756Z,35.92
2018-10-17T09:01:21.874Z,34.80
2018-10-17T09:03:49.971Z,36.53
2018-10-17T09:06:18.149Z,35.48
2018-10-17T09:08:46.203Z,31.60
2018-10-17T09:11:14.296Z,25.17
2018-10-17T09:13:42.377Z,28.15
2018-10-17T09:16:10.558Z,32.95
2018-10-17T09:18:38.582Z,28.12
2018-10-17T09:21:07.041Z,28.50
2018-10-17T09:23:34.784Z,32.75
2018-10-17T09:26:02.894Z,29.65
2018-10-17T09:28:31.016Z,30.08
2018-10-17T09:30:59.142Z,29.77
2018-10-17T09:33:27.253Z,29.52
2018-10-17T09:35:55.432Z,36.35
2018-10-17T09:38:23.557Z,29.35
2018-10-17T09:40:51.653Z,27.58
2018-10-17T09:43:19.834Z,26.70
2018-10-17T09:45:47.885Z,29.32
2018-10-17T09:48:16.911Z,32.63
2018-10-17T09:50:44.939Z,26.07
2018-10-17T09:53:14.023Z,34.05
2018-10-17T09:55:42.122Z,33.50
2018-10-17T09:58:10.274Z,26.12
2018-10-17T10:00:43.893Z,31.33
2018-10-17T10:03:11.991Z,24.15
2018-10-17T10:05:40.098Z,29.77
2018-10-17T10:08:08.187Z,38.00
2018-10-17T10:10:36.290Z,25.85
2018-10-17T10:13:04.509Z,32.20
2018-10-17T10:15:32.593Z,39.18
2018-10-17T10:18:00.681Z,34.18
2018-10-17T10:20:28.762Z,48.25
2018-10-17T10:22:56.881Z,43.33
2018-10-17T10:25:25.012Z,33.18
2018-10-17T10:27:53.076Z,26.15
2018-10-17T10:30:21.290Z,28.20
2018-10-17T10:32:49.359Z,26.65
2018-10-17T10:35:17.448Z,22.60
2018-10-17T10:37:45.553Z,26.52
2018-10-17T10:40:13.719Z,27.27
2018-10-17T10:42:41.778Z,23.50
2018-10-17T10:45:10.000Z,26.05
2018-10-17T10:47:38.070Z,33.18
2018-10-17T10:50:07.576Z,38.08
2018-10-17T10:52:35.645Z,34.08
2018-10-17T10:55:03.815Z,31.62
2018-10-17T10:57:31.897Z,32.53
2018-10-17T11:00:01.047Z,37.65
2018-10-17T11:02:29.183Z,26.42
2018-10-17T11:04:57.367Z,30.57
2018-10-17T11:07:25.409Z,31.90
2018-10-17T11:09:53.514Z,30.72
2018-10-17T11:12:21.601Z,24.52
2018-10-17T11:14:49.880Z,24.02
2018-10-17T11:17:17.785Z,43.02
2018-10-17T11:19:45.881Z,28.47
2018-10-17T11:22:13.966Z,44.30
2018-10-17T11:24:42.069Z,27.27
2018-10-17T11:27:10.248Z,37.20
2018-10-17T11:29:38.265Z,37.42
2018-10-17T11:32:06.505Z,39.92
2018-10-17T11:34:34.597Z,35.48
2018-10-17T11:37:02.709Z,38.65
2018-10-17T11:39:30.792Z,30.15
2018-10-17T11:41:58.873Z,33.58
2018-10-17T11:44:26.972Z,46.28
2018-10-17T11:46:55.080Z,33.98
2018-10-17T11:49:23.168Z,32.20
2018-10-17T11:51:51.257Z,41.55
2018-10-17T11:54:19.513Z,35.45
2018-10-17T11:56:47.599Z,43.87
2018-10-17T11:59:15.760Z,28.85
2018-10-17T12:01:43.743Z,41.88
2018-10-17T12:04:12.051Z,37.03
2018-10-17T12:06:39.943Z,44.23
2018-10-17T12:09:08.840Z,45.33
2018-10-17T12:11:37.060Z,50.33
2018-10-17T12:14:05.293Z,36.10
2018-10-17T12:16:33.389Z,49.75
2018-10-17T12:19:01.576Z,35.55
2018-10-17T12:21:29.737Z,52.35
2018-10-17T12:23:57.773Z,37.40
2018-10-17T12:26:25.832Z,47.88
2018-10-17T12:28:54.012Z,54.05
2018-10-17T12:31:21.996Z,57.40
2018-10-17T12:33:50.058Z,55.60
2018-10-17T12:36:18.142Z,42.93
2018-10-17T12:38:46.220Z,48.30
2018-10-17T12:41:14.301Z,61.85
2018-10-17T12:43:42.457Z,55.23
2018-10-17T12:46:10.667Z,53.17
2018-10-17T12:48:38.802Z,42.78
2018-10-17T12:51:06.985Z,60.28
2018-10-17T12:53:35.187Z,46.80
2018-10-17T12:56:03.297Z,47.45
2018-10-17T12:58:31.297Z,45.88
2018-10-17T13:00:59.406Z,53.23
2018-10-17T13:03:27.521Z,38.00
2018-10-17T13:05:55.605Z,33.73
2018-10-17T13:08:23.773Z,50.40
2018-10-17T13:10:51.874Z,38.25
2018-10-17T13:13:19.922Z,51.50
2018-10-17T13:15:48.058Z,41.05
2018-10-17T13:18:16.153Z,42.45
2018-10-17T13:20:44.229Z,45.60
2018-10-17T13:23:12.425Z,52.98
2018-10-17T13:25:40.480Z,47.27
2018-10-17T13:28:08.549Z,44.53
2018-10-17T13:30:36.633Z,42.30
2018-10-17T13:33:04.742Z,43.80
2018-10-17T13:35:32.833Z,42.83
2018-10-17T13:38:00.920Z,34.33
2018-10-17T13:40:29.134Z,40.48
2018-10-17T13:42:57.260Z,40.70
2018-10-17T13:45:25.323Z,49.30
2018-10-17T13:47:53.397Z,47.53
2018-10-17T13:50:21.481Z,47.83
2018-10-17T13:52:49.573Z,50.75
2018-10-17T13:55:17.738Z,50.92
2018-10-17T13:57:45.906Z,39.55
2018-10-17T14:00:14.041Z,47.95
2018-10-17T14:02:43.046Z,44.40
2018-10-17T14:05:11.118Z,42.13
2018-10-17T14:07:39.208Z,41.75
2018-10-17T14:10:07.313Z,49.25
2018-10-17T14:12:35.946Z,42.67
2018-10-17T14:15:04.247Z,41.35
2018-10-17T14:17:32.325Z,44.08
2018-10-17T14:20:00.453Z,50.90
2018-10-17T14:22:28.548Z,41.05
2018-10-17T14:24:56.636Z,47.17
2018-10-17T14:27:24.777Z,36.60
2018-10-17T14:29:52.873Z,43.45
2018-10-17T14:32:20.977Z,40.48
2018-10-17T14:34:49.057Z,47.45
2018-10-17T14:37:17.157Z,55.40
2018-10-17T14:39:45.256Z,57.05
2018-10-17T14:42:13.415Z,55.17
2018-10-17T14:44:41.449Z,65.85
2018-10-17T14:47:09.531Z,49.88
2018-10-17T14:49:37.614Z,38.40
2018-10-17T14:52:05.741Z,45.43
2018-10-17T14:54:33.834Z,66.85
2018-10-17T14:57:01.938Z,252.53
2018-10-17T14:59:30.025Z,201.55
2018-10-17T15:01:58.114Z,102.92
2018-10-17T15:04:26.233Z,88.12
2018-10-17T15:06:54.302Z,82.88
2018-10-17T15:09:22.397Z,75.12
2018-10-17T15:11:50.611Z,54.30
2018-10-17T15:14:18.592Z,67.53
2018-10-17T15:16:46.718Z,96.50
2018-10-17T15:19:14.762Z,45.52
2018-10-17T15:21:42.842Z,42.85
2018-10-17T15:24:10.948Z,43.83
2018-10-17T15:26:39.041Z,31.95
2018-10-17T15:29:07.256Z,35.45
2018-10-17T15:31:35.404Z,31.25
2018-10-17T15:34:03.537Z,30.40
2018-10-17T15:36:31.643Z,36.53
2018-10-17T15:38:59.757Z,30.70
2018-10-17T15:41:27.879Z,34.33
2018-10-17T15:43:55.957Z,28.07
2018-10-17T15:46:24.075Z,38.28
2018-10-17T15:48:52.182Z,27.87
2018-10-17T15:51:20.310Z,31.45
2018-10-17T15:53:48.413Z,34.73
2018-10-17T15:56:16.562Z,35.50
2018-10-17T15:58:44.662Z,28.38
2018-10-17T16:01:12.829Z,31.52
2018-10-17T16:03:40.886Z,29.23
2018-10-17T16:06:09.034Z,25.97
2018-10-17T16:08:37.105Z,21.97
2018-10-17T16:11:05.326Z,27.45
2018-10-17T16:13:33.429Z,34.03
2018-10-17T16:16:01.526Z,27.90
2018-10-17T16:18:29.614Z,24.98
2018-10-17T16:20:57.703Z,22.93
2018-10-17T16:23:25.782Z,21.62
2018-10-17T16:25:53.944Z,27.17
2018-10-17T16:28:22.026Z,16.55
2018-10-17T16:30:50.240Z,34.43
2018-10-17T16:33:18.245Z,20.62
2018-10-17T16:35:46.381Z,24.43
2018-10-17T16:38:14.583Z,28.07
2018-10-17T16:40:42.647Z,22.07
2018-10-17T16:43:10.721Z,26.62
2018-10-17T16:45:38.821Z,19.65
2018-10-17T16:48:06.962Z,19.48
2018-10-17T16:50:35.159Z,13.83
2018-10-17T16:53:03.233Z,19.45
2018-10-17T16:55:31.306Z,23.55
2018-10-17T16:57:59.412Z,19.67
2018-10-17T17:00:27.508Z,20.62
2018-10-17T17:02:55.677Z,19.25
2018-10-17T17:05:23.699Z,18.02
2018-10-17T17:07:51.789Z,34.10
2018-10-17T17:10:19.894Z,23.75
2018-10-17T17:12:48.002Z,25.75
2018-10-17T17:15:16.124Z,20.43
2018-10-17T17:17:44.226Z,22.90
2018-10-17T17:20:12.754Z,23.40
2018-10-17T17:22:41.504Z,18.85
2018-10-17T17:25:09.858Z,27.85
2018-10-17T17:27:38.120Z,29.07
2018-10-17T17:30:11.753Z,28.75
2018-10-17T17:32:39.870Z,35.48
2018-10-17T17:35:08.027Z,34.63
2018-10-17T17:37:36.973Z,41.98
2018-10-17T17:40:06.205Z,38.20
2018-10-17T17:42:34.309Z,29.60
2018-10-17T17:45:02.430Z,37.78
2018-10-17T17:47:30.529Z,31.42
2018-10-17T17:49:58.701Z,38.48
2018-10-17T17:52:26.829Z,44.40
2018-10-17T17:54:54.941Z,42.45
2018-10-17T17:57:23.045Z,36.13
2018-10-17T17:59:51.157Z,34.00
2018-10-17T18:02:19.309Z,41.00
2018-10-17T18:04:47.414Z,45.25
2018-10-17T18:07:15.517Z,48.00
2018-10-17T18:09:43.642Z,55.20
2018-10-17T18:12:11.741Z,50.50
2018-10-17T18:14:39.836Z,47.83
2018-10-17T18:17:07.937Z,58.05
2018-10-17T18:19:36.037Z,45.40
2018-10-17T18:22:04.247Z,52.33
2018-10-17T18:24:32.234Z,57.48
2018-10-17T18:27:00.337Z,48.98
2018-10-17T18:29:28.468Z,46.98
2018-10-17T18:31:56.705Z,46.23
2018-10-17T18:34:24.805Z,38.83
2018-10-17T18:36:52.918Z,41.63
2018-10-17T18:39:21.021Z,39.85
2018-10-17T18:41:49.116Z,51.13
2018-10-17T18:44:17.207Z,51.28
2018-10-17T18:46:45.313Z,44.15
2018-10-17T18:49:13.394Z,46.95
2018-10-17T18:51:41.519Z,51.65
2018-10-17T18:54:09.619Z,51.18
2018-10-17T18:56:37.733Z,45.78
2018-10-17T18:59:06.250Z,44.45
2018-10-17T19:01:34.386Z,42.20
2018-10-17T19:04:02.482Z,34.55
2018-10-17T19:06:30.591Z,47.60
2018-10-17T19:08:58.715Z,43.85
2018-10-17T19:11:26.812Z,45.45
2018-10-17T19:13:54.930Z,36.60
2018-10-17T19:16:23.025Z,55.33
2018-10-17T19:18:51.118Z,42.43
2018-10-17T19:21:19.218Z,45.83
2018-10-17T19:23:47.325Z,43.17
2018-10-17T19:26:15.422Z,34.78
2018-10-17T19:28:43.510Z,41.60
2018-10-17T19:31:11.605Z,40.48
2018-10-17T19:33:39.686Z,46.15
2018-10-17T19:36:07.873Z,54.93
2018-10-17T19:38:35.910Z,45.17
2018-10-17T19:41:04.010Z,45.55
2018-10-17T19:43:32.114Z,53.73
2018-10-17T19:46:00.204Z,48.48
2018-10-17T19:48:28.293Z,54.53
2018-10-17T19:50:56.420Z,58.17
2018-10-17T19:53:24.491Z,50.85
2018-10-17T19:55:52.695Z,57.45
2018-10-17T19:58:20.739Z,57.20
2018-10-17T20:00:48.843Z,57.45
2018-10-17T20:03:17.010Z,69.72
2018-10-17T20:05:45.030Z,48.28
2018-10-17T20:08:13.110Z,58.87
2018-10-17T20:10:41.224Z,53.08
2018-10-17T20:13:09.313Z,51.33
2018-10-17T20:15:37.422Z,57.08
2018-10-17T20:18:05.693Z,49.58
2018-10-17T20:20:33.801Z,57.13
2018-10-17T20:23:01.909Z,55.60
2018-10-17T20:25:30.018Z,70.20
2018-10-17T20:27:58.119Z,50.92
2018-10-17T20:30:26.399Z,50.45
2018-10-17T20:32:54.504Z,47.45
2018-10-17T20:35:22.595Z,62.30
2018-10-17T20:37:50.710Z,53.30
2018-10-17T20:40:18.841Z,56.58
2018-10-17T20:42:46.952Z,63.60
2018-10-17T20:45:15.046Z,51.40
2018-10-17T20:47:43.137Z,56.60
2018-10-17T20:50:11.282Z,50.58
2018-10-17T20:52:39.353Z,71.33
2018-10-17T20:55:07.450Z,66.57
2018-10-17T20:57:35.560Z,58.75
2018-10-17T21:00:03.695Z,50.75
2018-10-17T21:02:31.798Z,47.00
2018-10-17T21:04:59.884Z,50.55
2018-10-17T21:07:27.993Z,61.53
2018-10-17T21:09:56.070Z,54.75
2018-10-17T21:12:24.185Z,61.45
2018-10-17T21:14:52.309Z,53.73
2018-10-17T21:17:20.413Z,44.15
2018-10-17T21:19:48.526Z,55.20
2018-10-17T21:22:16.713Z,59.85
2018-10-17T21:24:44.802Z,55.30
2018-10-17T21:27:12.905Z,59.95
2018-10-17T21:29:41.000Z,60.58
2018-10-17T21:32:09.122Z,54.63
2018-10-17T21:34:37.241Z,55.40
2018-10-17T21:37:05.645Z,46.95
2018-10-17T21:39:33.728Z,67.75
2018-10-17T21:42:01.843Z,51.80
2018-10-17T21:44:29.942Z,76.07
2018-10-17T21:46:58.028Z,60.03
2018-10-17T21:49:26.117Z,57.55
2018-10-17T21:51:54.294Z,57.75
2018-10-17T21:54:22.385Z,62.45
2018-10-17T21:56:50.481Z,58.02
2018-10-17T21:59:18.581Z,60.23
2018-10-17T22:01:46.742Z,68.02
2018-10-17T22:04:14.843Z,79.30
2018-10-17T22:06:42.959Z,71.92
2018-10-17T22:09:11.680Z,70.62
2018-10-17T22:11:39.778Z,50.40
2018-10-17T22:14:08.174Z,47.93
2018-10-17T22:16:41.933Z,53.55
2018-10-17T22:19:10.338Z,63.17
2018-10-17T22:21:38.385Z,52.78
2018-10-17T22:24:06.720Z,64.00
2018-10-17T22:26:34.815Z,51.65
2018-10-17T22:29:02.897Z,50.00
2018-10-17T22:31:30.976Z,48.65
2018-10-17T22:33:59.079Z,41.02
2018-10-17T22:36:27.179Z,54.73
2018-10-17T22:38:55.350Z,51.65
2018-10-17T22:41:23.488Z,57.50
2018-10-17T22:43:51.588Z,44.75
2018-10-17T22:46:19.669Z,57.50
2018-10-17T22:48:47.769Z,52.73
2018-10-17T22:51:15.853Z,56.25
2018-10-17T22:53:43.946Z,43.63
2018-10-17T22:56:12.117Z,43.78
2018-10-17T22:58:40.164Z,48.45
2018-10-17T23:01:08.252Z,46.45
2018-10-17T23:03:36.324Z,42.17
2018-10-17T23:06:04.421Z,56.25
2018-10-17T23:08:32.516Z,51.13
2018-10-17T23:11:00.621Z,52.05
2018-10-17T23:13:28.801Z,31.50
2018-10-17T23:15:56.885Z,51.60
2018-10-17T23:18:24.991Z,63.23
2018-10-17T23:20:53.061Z,42.38
2018-10-17T23:23:21.153Z,48.48
2018-10-17T23:25:49.229Z,57.73
2018-10-17T23:28:17.373Z,44.85
2018-10-17T23:30:45.464Z,47.62
2018-10-17T23:33:13.558Z,46.37
2018-10-17T23:35:41.649Z,46.45
2018-10-17T23:38:09.832Z,44.33
2018-10-17T23:40:37.850Z,49.75
2018-10-17T23:43:06.846Z,33.05
2018-10-17T23:45:34.925Z,39.23
2018-10-17T23:48:03.085Z,42.13
2018-10-17T23:50:31.276Z,32.58
2018-10-17T23:52:59.251Z,50.88
2018-10-17T23:55:27.329Z,39.38
2018-10-17T23:57:55.429Z,42.27
